createdAt,value
2022-12-26T00:03:03.683Z,22.60
2022-12-26T00:11:27.255Z,26.10
2022-12-26T00:19:50.207Z,23.50
2022-12-26T00:28:12.993Z,22.70
2022-12-26T00:36:35.901Z,15.80
2022-12-26T00:44:58.764Z,17.70
2022-12-26T00:53:22.645Z,18.40
2022-12-26T01:01:45.619Z,18.20
2022-12-26T01:10:12.070Z,19.20
2022-12-26T01:18:35.862Z,19.30
2022-12-26T01:26:58.617Z,17.10
2022-12-26T01:35:23.425Z,20.00
2022-12-26T01:44:37.952Z,17.40
2022-12-26T01:53:05.437Z,17.70
2022-12-26T02:01:31.953Z,16.30
2022-12-26T02:09:55.304Z,15.80
2022-12-26T02:18:18.156Z,15.50
2022-12-26T02:26:59.823Z,18.00
2022-12-26T02:35:43.296Z,18.10
2022-12-26T02:53:49.722Z,15.40
2022-12-26T03:02:47.152Z,17.60
2022-12-26T03:11:29.512Z,17.80
2022-12-26T03:20:01.722Z,16.60
2022-12-26T03:28:25.979Z,14.70
2022-12-26T03:37:48.889Z,15.60
2022-12-26T03:46:49.103Z,13.80
2022-12-26T03:55:56.916Z,13.30
2022-12-26T04:04:40.966Z,11.40
2022-12-26T04:13:25.571Z,30.10
2022-12-26T04:22:30.201Z,14.80
2022-12-26T04:31:18.173Z,15.30
2022-12-26T04:40:04.398Z,14.70
2022-12-26T04:48:45.986Z,13.90
2022-12-26T05:05:57.062Z,15.90
2022-12-26T05:14:19.967Z,14.00
2022-12-26T05:23:03.952Z,11.80
2022-12-26T05:31:32.901Z,11.30
2022-12-26T05:48:20.929Z,9.30
2022-12-26T05:56:49.152Z,9.90
2022-12-26T06:05:12.638Z,10.90
2022-12-26T06:13:36.284Z,28.00
2022-12-26T06:21:59.045Z,12.20
2022-12-26T06:30:21.939Z,11.30
2022-12-26T06:38:45.691Z,12.50
2022-12-26T06:47:09.128Z,39.90
2022-12-26T06:55:31.989Z,13.80
2022-12-26T07:03:55.602Z,58.50
2022-12-26T07:12:21.904Z,144.20
2022-12-26T07:20:45.104Z,46.40
2022-12-26T07:29:10.605Z,12.40
2022-12-26T07:37:33.483Z,9.50
2022-12-26T07:45:57.945Z,12.60
2022-12-26T07:54:20.964Z,10.40
2022-12-26T08:02:43.925Z,42.40
2022-12-26T08:11:09.298Z,79.80
2022-12-26T08:19:32.234Z,50.70
2022-12-26T08:27:55.710Z,24.50
2022-12-26T08:36:19.301Z,16.50
2022-12-26T08:44:42.342Z,36.20
2022-12-26T08:53:06.949Z,16.90
2022-12-26T09:01:31.603Z,13.70
2022-12-26T09:09:54.489Z,21.30
2022-12-26T09:18:17.639Z,12.10
2022-12-26T09:26:41.625Z,29.70
2022-12-26T09:35:05.252Z,11.70
2022-12-26T09:43:50.046Z,11.90
2022-12-26T09:52:19.444Z,11.70
2022-12-26T10:01:11.386Z,28.10
2022-12-26T10:10:05.989Z,63.30
2022-12-26T10:19:28.723Z,34.70
2022-12-26T10:28:01.361Z,25.60
2022-12-26T10:36:33.502Z,48.90
2022-12-26T10:44:58.408Z,141.40
2022-12-26T10:53:21.463Z,79.70
2022-12-26T11:01:47.755Z,47.80
2022-12-26T11:10:19.840Z,60.60
2022-12-26T11:18:52.271Z,55.00
2022-12-26T11:27:24.257Z,33.00
2022-12-26T11:35:56.630Z,28.50
2022-12-26T11:44:30.709Z,19.30
2022-12-26T11:53:07.310Z,18.50
2022-12-26T12:01:30.311Z,12.60
2022-12-26T12:10:03.473Z,12.40
2022-12-26T12:18:49.032Z,12.80
2022-12-26T12:27:37.831Z,13.70
2022-12-26T12:36:06.589Z,12.00
2022-12-26T12:44:56.704Z,12.40
2022-12-26T12:53:48.472Z,11.20
2022-12-26T13:02:20.917Z,13.00
2022-12-26T13:10:52.324Z,11.60
2022-12-26T13:19:45.271Z,11.90
2022-12-26T13:28:19.114Z,12.00
2022-12-26T13:36:49.396Z,12.00
2022-12-26T13:45:37.358Z,12.20
2022-12-26T13:54:10.849Z,112.50
2022-12-26T14:03:19.635Z,120.40
2022-12-26T14:11:56.174Z,77.90
2022-12-26T14:20:24.884Z,34.10
2022-12-26T14:29:00.269Z,41.60
2022-12-26T14:37:43.799Z,42.60
2022-12-26T14:46:32.891Z,18.00
2022-12-26T14:54:56.056Z,28.60
2022-12-26T15:03:25.621Z,31.20
2022-12-26T15:11:51.459Z,14.30
2022-12-26T15:20:48.734Z,13.60
2022-12-26T15:29:48.935Z,20.30
2022-12-26T15:38:21.351Z,14.40
2022-12-26T15:47:04.039Z,13.60
2022-12-26T15:55:54.074Z,13.80
2022-12-26T16:04:32.859Z,14.00
2022-12-26T16:13:14.850Z,12.10
2022-12-26T16:21:58.003Z,9.90
2022-12-26T16:30:26.104Z,11.50
2022-12-26T16:38:50.524Z,10.70
2022-12-26T16:47:15.358Z,10.40
2022-12-26T16:55:44.878Z,10.70
2022-12-26T17:04:18.462Z,12.40
2022-12-26T17:12:41.490Z,11.40
2022-12-26T17:21:32.387Z,12.60
2022-12-26T17:30:01.030Z,12.80
2022-12-26T17:38:27.871Z,11.90
2022-12-26T17:46:51.184Z,12.50
2022-12-26T17:55:26.878Z,11.10
2022-12-26T18:03:52.976Z,11.90
2022-12-26T18:12:17.617Z,20.20
2022-12-26T18:20:40.418Z,16.30
2022-12-26T18:29:04.090Z,48.90
2022-12-26T18:37:29.098Z,19.80
2022-12-26T18:45:53.296Z,20.10
2022-12-26T18:54:24.685Z,18.30
2022-12-26T19:02:48.172Z,21.40
2022-12-26T19:11:15.020Z,18.50
2022-12-26T19:19:37.897Z,25.40
2022-12-26T19:28:00.736Z,12.30
2022-12-26T19:36:23.586Z,10.30
2022-12-26T19:44:46.629Z,10.40
2022-12-26T19:53:09.477Z,26.30
2022-12-26T20:01:35.899Z,17.80
2022-12-26T20:09:59.275Z,11.30
2022-12-26T20:18:23.107Z,11.80
2022-12-26T20:26:46.158Z,11.70
2022-12-26T20:35:09.417Z,10.70
2022-12-26T20:43:32.725Z,10.80
2022-12-26T20:51:55.579Z,11.40
2022-12-26T21:00:18.568Z,10.20
2022-12-26T21:08:46.810Z,11.10
2022-12-26T21:17:09.740Z,15.60
2022-12-26T21:25:33.628Z,11.70
2022-12-26T21:33:59.483Z,12.70
2022-12-26T21:42:22.261Z,12.70
2022-12-26T21:50:45.897Z,13.20
2022-12-26T21:59:28.677Z,9.10
2022-12-26T22:07:57.702Z,9.40
2022-12-26T22:16:20.593Z,9.40
2022-12-26T22:24:43.532Z,11.10
2022-12-26T22:33:06.372Z,7.90
2022-12-26T22:41:29.936Z,14.00
2022-12-26T22:49:52.792Z,8.40
2022-12-26T22:58:17.965Z,7.90
2022-12-26T23:06:42.375Z,7.70
2022-12-26T23:15:06.664Z,6.50
2022-12-26T23:23:29.708Z,8.20
2022-12-26T23:31:52.620Z,8.10
2022-12-26T23:40:19.649Z,7.30
2022-12-26T23:48:42.969Z,7.00
2022-12-26T23:57:06.030Z,7.20
